Pagrindinis puslapis
METAR-TAF:

METAR-TAF

Oro uostai :

Sionas, Šveicarija

platuma: 46-13N, ilguma: 007-20E, Aukštis: 482 m

Dabartinis oras

Ataskaita buvo paskelbta 22 minutes, ne 02:50 UTC
Vėjas 1 kt nuo kintamojo kryptimis
Temperatūra 2°C
Drėgmė 100%
Slėgis 1026 hPa
Matomumas: 4500 m
Išsisklaidę debesys ne aukštis 14000 ft
rūkana

METAR: LSGS 180250Z AUTO VRB01KT 4500 BR SCT140 02/02 Q1026

Laikas: 04:12 (03:12 UTC)

Prognozė

Ataskaita buvo paskelbta 47 minutes, ne 02:25 UTC
Prognozė galioja nuo 18 metu 03 UTC su 18 metu 12 UTC
Vėjas 3 kt nuo kintamojo kryptimis
Matomumas: 9000 m
Mažai debesys ne aukštis 3000 ft
Išsisklaidę debesys ne aukštis 10000 ft

TAF: LSGS 180225Z 1803/1812 VRB03KT 9000 FEW030 SCT100

Orai ataskaitas ir orų prognozės (METAR, TAF).

turimą stotys yra geltonos ir raudonos taškus žemėlapyje.

Perkelti pele per norėdami pamatyti stoties vardą.

Tada spustelėkite, norėdami matyti oro stebėjimo ir prognozės.

Norėdami pakeisti žemėlapį: spustelėkite ant žalios mygtukų su juodo kryžiaus žemyn,; žalią mygtuką su brūkšneliu, jei norite nutolinti; arba žalių rodyklių gretimoms žemėlapius.


METAR-TAF: